Time;durP1;ratioP1;P1;durP2;ratioP2;P2;SDS_P1;SDS_P2;PMS_P1;PMS_P2;Temp;Humidity;BMP_temperature;BMP_pressure;BME280_temperature;BME280_humidity;BME280_pressure;Samples;Min_cycle;Max_cycle;Signal;HPM_P1;HPM_P2
2023/12/14 00:00:43;;;;;;;1999.90;999.90;;;8.00;99.90;;;;;;4993430;28;20181;-71
2023/12/14 00:03:09;;;;;;;1999.90;999.90;;;8.00;99.90;;;;;;4994785;28;20178;-71
2023/12/14 00:05:35;;;;;;;1999.90;999.90;;;8.10;99.90;;;;;;4994634;28;20262;-72
2023/12/14 00:08:01;;;;;;;1999.90;999.90;;;8.10;99.90;;;;;;4997402;28;20688;-72
2023/12/14 00:10:26;;;;;;;1999.90;999.90;;;8.10;99.90;;;;;;4998237;28;20985;-71
2023/12/14 00:12:54;;;;;;;1999.90;999.90;;;8.20;99.90;;;;;;4998462;28;20241;-72
2023/12/14 00:15:19;;;;;;;1999.90;999.90;;;8.20;99.90;;;;;;4998572;28;20648;-71
2023/12/14 00:17:45;;;;;;;1999.90;999.90;;;8.20;99.90;;;;;;4998322;28;20470;-70
2023/12/14 00:20:11;;;;;;;1999.90;999.90;;;8.20;99.90;;;;;;4997960;28;20586;-72
2023/12/14 00:22:37;;;;;;;1999.90;999.90;;;8.30;99.90;;;;;;4997792;28;20181;-71
2023/12/14 00:25:04;;;;;;;1999.90;999.90;;;8.20;99.90;;;;;;4998427;28;20175;-72
2023/12/14 00:27:29;;;;;;;1999.90;999.90;;;8.20;99.90;;;;;;4997894;28;20436;-70
2023/12/14 00:29:55;;;;;;;1999.90;999.90;;;8.20;99.90;;;;;;4998166;28;20476;-71
2023/12/14 00:32:20;;;;;;;1999.90;999.90;;;8.20;99.90;;;;;;4998295;28;20170;-72
2023/12/14 00:34:46;;;;;;;1999.90;999.90;;;8.20;99.90;;;;;;4998339;28;20620;-71
2023/12/14 00:37:11;;;;;;;1999.90;999.90;;;8.00;99.90;;;;;;4998107;28;20166;-71
2023/12/14 00:39:37;;;;;;;1999.90;999.90;;;8.10;99.90;;;;;;4998470;28;20241;-72
2023/12/14 00:42:03;;;;;;;1999.90;999.90;;;8.10;99.90;;;;;;4998371;28;20208;-72
2023/12/14 00:44:29;;;;;;;1999.90;999.90;;;8.20;99.90;;;;;;4997929;28;20218;-71
2023/12/14 00:46:54;;;;;;;1999.90;999.90;;;8.40;99.90;;;;;;4997826;28;20449;-71
2023/12/14 00:49:20;;;;;;;1999.90;999.90;;;8.10;99.90;;;;;;4997267;28;20686;-70
2023/12/14 00:51:45;;;;;;;1999.90;999.90;;;8.30;99.90;;;;;;4997364;28;20162;-71
2023/12/14 00:54:11;;;;;;;1999.90;999.90;;;8.40;99.90;;;;;;4997501;28;20167;-72
2023/12/14 00:56:36;;;;;;;1999.90;999.90;;;8.40;99.90;;;;;;4997369;28;20175;-71
2023/12/14 00:59:02;;;;;;;1999.90;999.90;;;8.40;99.90;;;;;;4997109;28;20202;-71
2023/12/14 01:01:28;;;;;;;1999.90;999.90;;;8.40;99.90;;;;;;4997434;28;20194;-70
2023/12/14 01:03:53;;;;;;;1999.90;999.90;;;8.30;99.90;;;;;;4997593;28;20205;-71
2023/12/14 01:06:19;;;;;;;1999.90;999.90;;;8.30;99.90;;;;;;4995962;28;20174;-70
2023/12/14 01:08:45;;;;;;;1999.90;999.90;;;8.20;99.90;;;;;;4994762;28;20206;-70
2023/12/14 01:11:10;;;;;;;1999.90;999.90;;;8.20;99.90;;;;;;4995238;28;20321;-71
2023/12/14 01:13:36;;;;;;;1999.90;999.90;;;8.00;99.90;;;;;;4995012;28;20163;-70
2023/12/14 01:16:02;;;;;;;1999.90;999.90;;;8.20;99.90;;;;;;4995097;28;20205;-70
2023/12/14 01:18:27;;;;;;;1999.90;999.90;;;8.20;99.90;;;;;;4994844;28;20622;-70
2023/12/14 01:20:53;;;;;;;1999.90;999.90;;;8.30;99.90;;;;;;4995078;28;20423;-70
2023/12/14 01:23:18;;;;;;;1999.90;999.90;;;8.30;99.90;;;;;;4994885;28;20622;-70
2023/12/14 01:25:44;;;;;;;1999.90;999.90;;;8.20;99.90;;;;;;4994927;28;20167;-70
2023/12/14 01:28:10;;;;;;;1999.90;999.90;;;8.30;99.90;;;;;;4994693;28;20201;-70
2023/12/14 01:30:35;;;;;;;1999.90;999.90;;;8.30;99.90;;;;;;4994565;28;20168;-69
2023/12/14 01:33:01;;;;;;;1999.90;999.90;;;8.40;99.90;;;;;;4994688;28;20173;-70
2023/12/14 01:35:28;;;;;;;1999.90;999.90;;;8.40;99.90;;;;;;4994820;28;20630;-70
2023/12/14 01:37:54;;;;;;;1999.90;999.90;;;8.40;99.90;;;;;;4994602;28;20700;-70
2023/12/14 01:40:20;;;;;;;1999.90;999.90;;;8.40;99.90;;;;;;4994422;28;20410;-70
2023/12/14 01:42:45;;;;;;;1999.90;999.90;;;8.40;99.90;;;;;;4994470;28;20174;-70
2023/12/14 01:45:13;;;;;;;1999.90;999.90;;;8.30;99.90;;;;;;4994537;28;20412;-70
2023/12/14 01:47:38;;;;;;;1999.90;999.90;;;8.30;99.90;;;;;;4994541;28;20235;-71
2023/12/14 01:50:04;;;;;;;1999.90;999.90;;;8.20;99.90;;;;;;4994262;28;20933;-70
2023/12/14 01:52:30;;;;;;;1999.90;999.90;;;8.20;99.90;;;;;;4994378;28;20194;-70
2023/12/14 01:54:58;;;;;;;1999.90;999.90;;;8.20;99.90;;;;;;4994440;28;20406;-71
2023/12/14 01:57:24;;;;;;;1999.90;999.90;;;8.20;99.90;;;;;;4994323;28;20573;-70
2023/12/14 01:59:50;;;;;;;1999.90;999.90;;;8.20;99.90;;;;;;4994058;28;20503;-70
2023/12/14 02:02:15;;;;;;;1999.90;999.90;;;8.10;99.90;;;;;;4994243;28;20166;-70
2023/12/14 02:04:41;;;;;;;1999.90;999.90;;;8.10;99.90;;;;;;4994396;28;20170;-71
2023/12/14 02:07:07;;;;;;;1999.90;999.90;;;8.10;99.90;;;;;;4994136;28;20208;-70
2023/12/14 02:09:32;;;;;;;1999.90;999.90;;;8.10;99.90;;;;;;4993960;28;20205;-70
2023/12/14 02:11:58;;;;;;;1999.90;999.90;;;8.10;99.90;;;;;;4993947;28;20248;-70
2023/12/14 02:14:23;;;;;;;1999.90;999.90;;;8.00;99.90;;;;;;4993996;28;20171;-70
2023/12/14 02:16:49;;;;;;;1999.90;999.90;;;7.80;99.90;;;;;;4993953;28;20165;-71
2023/12/14 02:19:15;;;;;;;1999.90;999.90;;;8.00;99.90;;;;;;4993686;28;20285;-69
2023/12/14 02:21:40;;;;;;;1999.90;999.90;;;8.00;99.90;;;;;;4993875;28;20178;-70
2023/12/14 02:24:06;;;;;;;1999.90;999.90;;;8.00;99.90;;;;;;4993730;28;20248;-70
2023/12/14 02:26:31;;;;;;;1999.90;999.90;;;8.00;99.90;;;;;;4993742;28;20177;-70
2023/12/14 02:28:57;;;;;;;1999.90;999.90;;;8.00;99.90;;;;;;4992999;28;20340;-70
2023/12/14 02:31:23;;;;;;;1999.90;999.90;;;8.00;99.90;;;;;;4993445;28;20634;-70
2023/12/14 02:33:48;;;;;;;1999.90;999.90;;;7.90;99.90;;;;;;4993617;28;20252;-70
2023/12/14 02:36:14;;;;;;;1999.90;999.90;;;7.90;99.90;;;;;;4993681;28;20621;-70
2023/12/14 02:38:39;;;;;;;1999.90;999.90;;;7.90;99.90;;;;;;4993278;28;20292;-72
2023/12/14 02:41:05;;;;;;;1999.90;999.90;;;7.90;99.90;;;;;;4993567;28;20174;-70
2023/12/14 02:43:31;;;;;;;1999.90;999.90;;;7.90;99.90;;;;;;4993336;28;20554;-69
2023/12/14 02:46:01;;;;;;;1999.90;999.90;;;7.80;99.90;;;;;;4993411;28;20321;-70
2023/12/14 02:48:28;;;;;;;1999.90;999.90;;;7.80;99.90;;;;;;4993321;28;20217;-70
2023/12/14 02:50:53;;;;;;;1999.90;999.90;;;7.80;99.90;;;;;;4993408;28;20415;-70
2023/12/14 02:53:19;;;;;;;1999.90;999.90;;;7.80;99.90;;;;;;4993344;28;20409;-70
2023/12/14 02:55:45;;;;;;;1999.90;999.90;;;7.70;99.90;;;;;;4993242;28;20170;-70
2023/12/14 02:58:10;;;;;;;1999.90;999.90;;;7.60;99.90;;;;;;4993105;28;20208;-70
2023/12/14 03:00:36;;;;;;;1999.90;999.90;;;7.80;99.90;;;;;;4992945;28;20544;-70
2023/12/14 03:03:01;;;;;;;1999.90;999.90;;;7.70;99.90;;;;;;4993053;28;20182;-70
2023/12/14 03:05:27;;;;;;;1999.90;999.90;;;7.60;99.90;;;;;;4993071;28;20205;-70
2023/12/14 03:07:52;;;;;;;1999.90;999.90;;;7.50;99.90;;;;;;4992787;28;20213;-70
2023/12/14 03:10:19;;;;;;;1999.90;999.90;;;7.50;99.90;;;;;;4992787;28;20244;-70
2023/12/14 03:12:45;;;;;;;1999.90;999.90;;;7.50;99.90;;;;;;4992824;28;20409;-70
2023/12/14 03:15:10;;;;;;;1999.90;999.90;;;7.50;99.90;;;;;;4992923;28;20196;-71
2023/12/14 03:17:36;;;;;;;1999.90;999.90;;;7.50;99.90;;;;;;4992857;28;20200;-69
2023/12/14 03:20:03;;;;;;;1999.90;999.90;;;7.40;99.90;;;;;;4992588;28;20178;-70
2023/12/14 03:22:28;;;;;;;1999.90;999.90;;;7.30;99.90;;;;;;4992794;28;20570;-70
2023/12/14 03:24:54;;;;;;;1999.90;999.90;;;7.30;99.90;;;;;;4992664;28;20408;-70
2023/12/14 03:27:22;;;;;;;1999.90;999.90;;;7.30;99.90;;;;;;4992807;28;20182;-70
2023/12/14 03:29:48;;;;;;;1999.90;999.90;;;7.30;99.90;;;;;;4992548;28;20209;-70
2023/12/14 03:32:13;;;;;;;1999.90;999.90;;;7.30;99.90;;;;;;4992565;28;20970;-70
2023/12/14 03:34:39;;;;;;;1999.90;999.90;;;7.30;99.90;;;;;;4992651;28;20174;-70
2023/12/14 03:37:04;;;;;;;1999.90;999.90;;;7.00;99.90;;;;;;4992514;28;20178;-69
2023/12/14 03:39:30;;;;;;;1999.90;999.90;;;7.10;99.90;;;;;;4992351;28;20256;-70
2023/12/14 03:41:55;;;;;;;1999.90;999.90;;;7.10;99.90;;;;;;4991600;28;20174;-70
2023/12/14 03:44:21;;;;;;;1999.90;999.90;;;7.20;99.90;;;;;;4992529;28;20165;-70
2023/12/14 03:46:47;;;;;;;1999.90;999.90;;;7.20;99.90;;;;;;4992451;28;20644;-70
2023/12/14 03:49:13;;;;;;;1999.90;999.90;;;7.20;99.90;;;;;;4992238;28;20268;-70
2023/12/14 03:51:39;;;;;;;1999.90;999.90;;;7.10;99.90;;;;;;4992466;28;20898;-70
2023/12/14 03:54:05;;;;;;;1999.90;999.90;;;7.00;99.90;;;;;;4992293;28;20248;-71
2023/12/14 03:56:30;;;;;;;1999.90;999.90;;;6.90;99.90;;;;;;4992384;28;20499;-70
2023/12/14 03:58:57;;;;;;;1999.90;999.90;;;6.90;99.90;;;;;;4992137;28;20198;-70
2023/12/14 04:01:23;;;;;;;1999.90;999.90;;;6.90;99.90;;;;;;4992371;28;20208;-70
2023/12/14 04:03:48;;;;;;;1999.90;999.90;;;6.90;99.90;;;;;;4992340;28;20494;-70
2023/12/14 04:06:15;;;;;;;1999.90;999.90;;;7.00;99.90;;;;;;4992469;28;20636;-70
2023/12/14 04:08:41;;;;;;;1999.90;999.90;;;7.00;99.90;;;;;;4992075;28;20269;-72
2023/12/14 04:11:07;;;;;;;1999.90;999.90;;;6.90;99.90;;;;;;4992566;28;20408;-70
2023/12/14 04:13:33;;;;;;;1999.90;999.90;;;6.90;99.90;;;;;;4992285;28;20409;-71
2023/12/14 04:15:59;;;;;;;1999.90;999.90;;;7.30;99.90;;;;;;4992332;28;20459;-72
2023/12/14 04:18:24;;;;;;;1999.90;999.90;;;6.90;99.90;;;;;;4992028;28;20429;-72
2023/12/14 04:20:50;;;;;;;1999.90;999.90;;;6.90;99.90;;;;;;4992365;28;20254;-72
2023/12/14 04:23:15;;;;;;;1999.90;999.90;;;6.80;99.90;;;;;;4992323;28;20212;-71
2023/12/14 04:25:41;;;;;;;1999.90;999.90;;;6.90;99.90;;;;;;4992268;28;20696;-72
2023/12/14 04:28:07;;;;;;;1999.90;999.90;;;6.90;99.90;;;;;;4992186;28;20213;-72
2023/12/14 04:30:32;;;;;;;1999.90;999.90;;;6.90;99.90;;;;;;4991983;28;20170;-72
2023/12/14 04:32:58;;;;;;;1999.90;999.90;;;6.90;99.90;;;;;;4992013;28;20173;-72
2023/12/14 04:35:24;;;;;;;1999.90;999.90;;;6.90;99.90;;;;;;4992162;28;20542;-72
2023/12/14 04:37:49;;;;;;;1999.90;999.90;;;6.90;99.90;;;;;;4992009;28;20189;-72
2023/12/14 04:40:15;;;;;;;1999.90;999.90;;;6.90;99.90;;;;;;4991824;28;20178;-72
2023/12/14 04:42:41;;;;;;;1999.90;999.90;;;6.80;99.90;;;;;;4992128;28;20664;-72
2023/12/14 04:45:08;;;;;;;1999.90;999.90;;;6.80;99.90;;;;;;4992107;28;20182;-71
2023/12/14 04:47:34;;;;;;;1999.90;999.90;;;6.80;99.90;;;;;;4992075;28;20198;-71
2023/12/14 04:50:00;;;;;;;1999.90;999.90;;;6.70;99.90;;;;;;4991804;28;20843;-72
2023/12/14 04:52:26;;;;;;;1999.90;999.90;;;6.70;99.90;;;;;;4992573;28;20413;-71
2023/12/14 04:54:51;;;;;;;1999.90;999.90;;;6.80;99.90;;;;;;4995670;28;20411;-72
2023/12/14 04:57:18;;;;;;;1999.90;999.90;;;6.90;99.90;;;;;;4995470;28;20236;-71
2023/12/14 04:59:43;;;;;;;1999.90;999.90;;;6.90;99.90;;;;;;4995379;28;20174;-72
2023/12/14 05:02:09;;;;;;;1999.90;999.90;;;6.80;99.90;;;;;;4995358;28;20499;-72
2023/12/14 05:04:34;;;;;;;1999.90;999.90;;;6.80;99.90;;;;;;4995414;28;20225;-71
2023/12/14 05:07:00;;;;;;;1999.90;999.90;;;6.70;99.90;;;;;;4995502;28;20173;-70
2023/12/14 05:09:26;;;;;;;1999.90;999.90;;;6.70;99.90;;;;;;4995187;28;20299;-72
2023/12/14 05:11:52;;;;;;;1999.90;999.90;;;6.70;99.90;;;;;;4995832;28;20256;-71
2023/12/14 05:14:17;;;;;;;1999.90;999.90;;;6.80;99.90;;;;;;4995640;28;20885;-71
2023/12/14 05:16:43;;;;;;;1999.90;999.90;;;6.70;99.90;;;;;;4995999;28;20178;-71
2023/12/14 05:19:09;;;;;;;1999.90;999.90;;;6.70;99.90;;;;;;4995200;28;20284;-72
2023/12/14 05:21:35;;;;;;;1999.90;999.90;;;6.80;99.90;;;;;;4995550;28;20492;-71
2023/12/14 05:24:00;;;;;;;1999.90;999.90;;;6.80;99.90;;;;;;4995016;28;20178;-72
2023/12/14 05:26:26;;;;;;;1999.90;999.90;;;6.80;99.90;;;;;;4995200;28;20173;-72
2023/12/14 05:28:52;;;;;;;1999.90;999.90;;;6.60;99.90;;;;;;4994993;28;20296;-72
2023/12/14 05:31:18;;;;;;;1999.90;999.90;;;6.80;99.90;;;;;;4995291;28;20180;-71
2023/12/14 05:33:43;;;;;;;1999.90;999.90;;;6.80;99.90;;;;;;4995293;28;20253;-71
2023/12/14 05:36:10;;;;;;;1999.90;999.90;;;6.70;99.90;;;;;;4994232;28;20517;-71
2023/12/14 05:38:40;;;;;;;1999.90;999.90;;;6.60;99.90;;;;;;4994388;28;20205;-71
2023/12/14 05:41:06;;;;;;;1999.90;999.90;;;6.50;99.90;;;;;;4986951;28;20413;-71
2023/12/14 05:43:31;;;;;;;1999.90;999.90;;;6.40;99.90;;;;;;4994711;28;20923;-71
2023/12/14 05:45:57;;;;;;;1999.90;999.90;;;6.40;99.90;;;;;;4994739;28;20413;-71
2023/12/14 05:48:23;;;;;;;1999.90;999.90;;;6.40;99.90;;;;;;4994467;28;20264;-72
2023/12/14 05:50:49;;;;;;;1999.90;999.90;;;6.40;99.90;;;;;;4994591;28;20177;-72
2023/12/14 05:53:14;;;;;;;1999.90;999.90;;;6.40;99.90;;;;;;4994537;28;20170;-72
2023/12/14 05:55:41;;;;;;;1999.90;999.90;;;6.40;99.90;;;;;;4994436;28;20170;-72
2023/12/14 05:58:07;;;;;;;1999.90;999.90;;;6.40;99.90;;;;;;4994383;28;20193;-72
2023/12/14 06:00:34;;;;;;;1999.90;999.90;;;6.40;99.90;;;;;;4994191;28;20416;-71
2023/12/14 06:03:00;;;;;;;1999.90;999.90;;;6.30;99.90;;;;;;4994411;28;20795;-71
2023/12/14 06:05:25;;;;;;;1999.90;999.90;;;6.30;99.90;;;;;;4993538;28;20409;-71
2023/12/14 06:07:51;;;;;;;1999.90;999.90;;;6.20;99.90;;;;;;4994059;28;20737;-72
2023/12/14 06:10:17;;;;;;;1999.90;999.90;;;6.20;99.90;;;;;;4993991;28;20174;-71
2023/12/14 06:12:42;;;;;;;1999.90;999.90;;;6.30;99.90;;;;;;4994294;28;20201;-71
2023/12/14 06:15:08;;;;;;;1999.90;999.90;;;6.30;99.90;;;;;;4994233;28;20220;-71
2023/12/14 06:17:34;;;;;;;1999.90;999.90;;;6.30;99.90;;;;;;4993950;28;20197;-72
2023/12/14 06:20:00;;;;;;;1999.90;999.90;;;6.30;99.90;;;;;;4993979;28;20409;-71
2023/12/14 06:22:26;;;;;;;1999.90;999.90;;;6.30;99.90;;;;;;4993994;28;20178;-72
2023/12/14 06:24:51;;;;;;;1999.90;999.90;;;6.30;99.90;;;;;;4994191;28;20463;-72
2023/12/14 06:27:17;;;;;;;1999.90;999.90;;;6.40;99.90;;;;;;4993818;28;21095;-71
2023/12/14 06:29:43;;;;;;;1999.90;999.90;;;6.30;99.90;;;;;;4993353;28;20213;-70
2023/12/14 06:32:09;;;;;;;1999.90;999.90;;;6.30;99.90;;;;;;4993665;28;20417;-70
2023/12/14 06:34:34;;;;;;;1999.90;999.90;;;6.40;99.90;;;;;;4993209;28;20843;-70
2023/12/14 06:37:01;;;;;;;1999.90;999.90;;;6.30;99.90;;;;;;4993514;28;20177;-71
2023/12/14 06:39:27;;;;;;;1999.90;999.90;;;6.30;99.90;;;;;;4993327;28;20182;-70
2023/12/14 06:41:53;;;;;;;1999.90;999.90;;;6.30;99.90;;;;;;4993441;28;20785;-70
2023/12/14 06:44:19;;;;;;;1999.90;999.90;;;6.30;99.90;;;;;;4993578;28;20589;-70
2023/12/14 06:46:44;;;;;;;1999.90;999.90;;;6.20;99.90;;;;;;4993518;28;20413;-71
2023/12/14 06:49:10;;;;;;;1999.90;999.90;;;6.20;99.90;;;;;;4993044;28;20217;-70
2023/12/14 06:51:35;;;;;;;1999.90;999.90;;;6.20;99.90;;;;;;4993630;28;20181;-70
2023/12/14 06:54:01;;;;;;;1999.90;999.90;;;6.20;99.90;;;;;;4993291;28;20177;-70
2023/12/14 06:56:27;;;;;;;1999.90;999.90;;;6.20;99.90;;;;;;4993349;28;20649;-70
2023/12/14 06:58:53;;;;;;;1999.90;999.90;;;6.20;99.90;;;;;;4993018;28;20201;-70
2023/12/14 07:01:18;;;;;;;1999.90;999.90;;;6.20;99.90;;;;;;4993203;28;20750;-71
2023/12/14 07:03:44;;;;;;;1999.90;999.90;;;6.10;99.90;;;;;;4993023;28;20178;-70
2023/12/14 07:06:17;;;;;;;1999.90;999.90;;;6.10;99.90;;;;;;4993149;28;20166;-70
2023/12/14 07:08:44;;;;;;;1999.90;999.90;;;6.10;99.90;;;;;;4992606;28;20975;-70
2023/12/14 07:11:10;;;;;;;1999.90;999.90;;;6.10;99.90;;;;;;4993022;28;20401;-70
2023/12/14 07:13:36;;;;;;;1999.90;999.90;;;6.10;99.90;;;;;;4993006;28;20495;-70
2023/12/14 07:16:07;;;;;;;1999.90;999.90;;;6.10;99.90;;;;;;4992888;28;20441;-70
2023/12/14 07:18:36;;;;;;;1999.90;999.90;;;6.10;99.90;;;;;;4992672;28;20432;-70
2023/12/14 07:21:05;;;;;;;1999.90;999.90;;;6.00;99.90;;;;;;4992930;28;20783;-70
2023/12/14 07:23:31;;;;;;;1999.90;999.90;;;6.00;99.90;;;;;;4992794;28;20404;-70
2023/12/14 07:25:57;;;;;;;1999.90;999.90;;;6.00;99.90;;;;;;4992867;28;20409;-70
2023/12/14 07:28:22;;;;;;;1999.90;999.90;;;6.00;99.90;;;;;;4992472;28;20480;-70
2023/12/14 07:30:48;;;;;;;1999.90;999.90;;;6.00;99.90;;;;;;4992225;28;20178;-70
2023/12/14 07:33:15;;;;;;;1999.90;999.90;;;6.00;99.90;;;;;;4992469;28;20177;-70
2023/12/14 07:35:40;;;;;;;1999.90;999.90;;;6.00;99.90;;;;;;4992607;28;20413;-70
2023/12/14 07:38:06;;;;;;;1999.90;999.90;;;6.00;99.90;;;;;;4992563;28;20435;-70
2023/12/14 07:40:32;;;;;;;1999.90;999.90;;;6.00;99.90;;;;;;4992476;28;20196;-70
2023/12/14 07:42:57;;;;;;;1999.90;999.90;;;5.90;99.90;;;;;;4992599;28;20181;-70
2023/12/14 07:45:23;;;;;;;1999.90;999.90;;;5.90;99.90;;;;;;4992578;28;20661;-71
2023/12/14 07:47:48;;;;;;;1999.90;999.90;;;5.90;99.90;;;;;;4991822;28;20209;-70
2023/12/14 07:50:14;;;;;;;1999.90;999.90;;;5.80;99.90;;;;;;4992284;28;20169;-70
2023/12/14 07:52:40;;;;;;;1999.90;999.90;;;5.90;99.90;;;;;;4992306;28;20668;-70
2023/12/14 07:55:06;;;;;;;1999.90;999.90;;;5.80;99.90;;;;;;4992434;28;20261;-70
2023/12/14 07:57:32;;;;;;;1999.90;999.90;;;5.80;99.90;;;;;;4992406;28;20523;-70
2023/12/14 07:59:58;;;;;;;1999.90;999.90;;;5.80;99.90;;;;;;4992269;28;20508;-70
2023/12/14 08:02:23;;;;;;;1999.90;999.90;;;5.80;99.90;;;;;;4992041;28;20182;-71
2023/12/14 08:04:49;;;;;;;1999.90;999.90;;;5.80;99.90;;;;;;4992525;28;20205;-70
2023/12/14 08:07:15;;;;;;;1999.90;999.90;;;5.80;99.90;;;;;;4992057;28;20177;-70
2023/12/14 08:09:40;;;;;;;1999.90;999.90;;;5.80;99.90;;;;;;4990841;28;20236;-70
2023/12/14 08:12:06;;;;;;;1999.90;999.90;;;5.80;99.90;;;;;;4991367;28;20641;-70
2023/12/14 08:14:37;;;;;;;1999.90;999.90;;;5.80;99.90;;;;;;4991359;28;20177;-70
2023/12/14 08:17:03;;;;;;;1999.90;999.90;;;5.10;99.90;;;;;;4990855;28;20563;-70
2023/12/14 08:19:29;;;;;;;1999.90;999.90;;;5.80;99.90;;;;;;4991129;28;20412;-70
2023/12/14 08:21:54;;;;;;;1999.90;999.90;;;5.90;99.90;;;;;;4991182;28;20184;-70
2023/12/14 08:24:20;;;;;;;1999.90;999.90;;;5.90;99.90;;;;;;4991387;28;20409;-71
2023/12/14 08:26:45;;;;;;;1999.90;999.90;;;5.90;99.90;;;;;;4991398;28;20177;-70
2023/12/14 08:29:11;;;;;;;1999.90;999.90;;;6.00;99.90;;;;;;4993892;28;20277;-70
2023/12/14 08:31:36;;;;;;;1999.90;999.90;;;5.90;99.90;;;;;;4994684;28;20177;-70
2023/12/14 08:34:03;;;;;;;1999.90;999.90;;;5.90;99.90;;;;;;4994848;28;20256;-70
2023/12/14 08:36:29;;;;;;;1999.90;999.90;;;5.80;99.90;;;;;;4994669;28;20185;-69
2023/12/14 08:38:54;;;;;;;1999.90;999.90;;;5.70;99.90;;;;;;4994371;28;20494;-70
2023/12/14 08:41:20;;;;;;;1999.90;999.90;;;5.80;99.90;;;;;;4994460;28;20877;-70
2023/12/14 08:43:46;;;;;;;1999.90;999.90;;;5.70;99.90;;;;;;4994443;28;20173;-69
2023/12/14 08:46:11;;;;;;;1999.90;999.90;;;5.70;99.90;;;;;;4994710;28;20260;-70
2023/12/14 08:48:37;;;;;;;1999.90;999.90;;;5.70;99.90;;;;;;4994106;28;20610;-70
2023/12/14 08:51:04;;;;;;;1999.90;999.90;;;5.70;99.90;;;;;;4994519;28;20256;-70
2023/12/14 08:53:29;;;;;;;1999.90;999.90;;;5.70;99.90;;;;;;4994424;28;20205;-70
2023/12/14 08:55:55;;;;;;;1999.90;999.90;;;5.70;99.90;;;;;;4994480;28;20416;-70
2023/12/14 08:58:21;;;;;;;1999.90;999.90;;;5.70;99.90;;;;;;4994028;28;20190;-70
2023/12/14 09:00:46;;;;;;;1999.90;999.90;;;5.60;99.90;;;;;;4994309;28;20629;-71
2023/12/14 09:03:12;;;;;;;1999.90;999.90;;;5.60;99.90;;;;;;4994245;28;20182;-70
2023/12/14 09:05:41;;;;;;;1999.90;999.90;;;5.60;99.90;;;;;;4994155;28;20603;-70
2023/12/14 09:08:07;;;;;;;1999.90;999.90;;;5.60;99.90;;;;;;4957606;28;1069077;-69
2023/12/14 09:10:33;;;;;;;1999.90;999.90;;;5.60;99.90;;;;;;4995067;28;20166;-71
2023/12/14 09:13:00;;;;;;;1999.90;999.90;;;5.60;99.90;;;;;;4995426;28;20252;-70
2023/12/14 09:15:25;;;;;;;1999.90;999.90;;;5.60;99.90;;;;;;4995380;28;20413;-70
2023/12/14 09:17:51;;;;;;;1999.90;999.90;;;5.60;99.90;;;;;;4995110;28;20425;-70
2023/12/14 09:20:16;;;;;;;1999.90;999.90;;;5.60;99.90;;;;;;4994991;28;20248;-71
2023/12/14 09:22:42;;;;;;;1999.90;999.90;;;5.60;99.90;;;;;;4995102;28;20244;-69
2023/12/14 09:25:09;;;;;;;1999.90;999.90;;;5.60;99.90;;;;;;4993762;28;20188;-70
2023/12/14 09:27:34;;;;;;;1999.90;999.90;;;5.60;99.90;;;;;;4994919;28;20277;-69
2023/12/14 09:30:00;;;;;;;1999.90;999.90;;;5.50;99.90;;;;;;4994541;28;20531;-70
2023/12/14 09:32:26;;;;;;;1999.90;999.90;;;5.50;99.90;;;;;;4994583;28;20170;-72
2023/12/14 09:34:51;;;;;;;1999.90;999.90;;;5.60;99.90;;;;;;4992666;28;20189;-70
2023/12/14 09:37:17;;;;;;;1999.90;999.90;;;5.50;99.90;;;;;;4994409;28;20256;-70
2023/12/14 09:39:43;;;;;;;1999.90;999.90;;;5.50;99.90;;;;;;4992785;28;20427;-68
2023/12/14 09:42:08;;;;;;;1999.90;999.90;;;5.50;99.90;;;;;;4992314;28;20170;-71
2023/12/14 09:44:36;;;;;;;1999.90;999.90;;;5.60;99.90;;;;;;4989364;28;20174;-70
2023/12/14 09:47:02;;;;;;;1999.90;999.90;;;5.40;99.90;;;;;;4991965;28;20185;-71
2023/12/14 09:49:30;;;;;;;1999.90;999.90;;;5.60;99.90;;;;;;4991043;28;20463;-71
2023/12/14 09:51:59;;;;;;;1999.90;999.90;;;5.60;99.90;;;;;;4990906;28;20935;-70
2023/12/14 09:54:26;;;;;;;1999.90;999.90;;;5.70;99.90;;;;;;4990548;28;20405;-71
2023/12/14 09:56:52;;;;;;;1999.90;999.90;;;5.70;99.90;;;;;;4990590;28;20404;-68
2023/12/14 09:59:19;;;;;;;1999.90;999.90;;;5.80;99.90;;;;;;4990312;28;20565;-70
2023/12/14 10:01:45;;;;;;;1999.90;999.90;;;5.80;99.90;;;;;;4990174;28;20960;-71
2023/12/14 10:04:13;;;;;;;1999.90;999.90;;;6.00;99.90;;;;;;4989648;28;20413;-70
2023/12/14 10:06:39;;;;;;;1999.90;999.90;;;6.10;99.90;;;;;;4989945;28;20456;-70
2023/12/14 10:09:09;;;;;;;1999.90;999.90;;;6.20;99.90;;;;;;4989750;28;20933;-69
2023/12/14 10:11:36;;;;;;;1999.90;999.90;;;6.30;99.90;;;;;;4988785;28;20503;-68
2023/12/14 10:14:02;;;;;;;1999.90;999.90;;;6.30;99.90;;;;;;4989080;28;20424;-70
2023/12/14 10:16:32;;;;;;;1999.90;999.90;;;6.30;99.90;;;;;;4990115;28;20436;-70
2023/12/14 10:18:59;;;;;;;1999.90;999.90;;;6.20;99.90;;;;;;4989736;28;20501;-69
2023/12/14 10:21:27;;;;;;;1999.90;999.90;;;6.10;99.90;;;;;;4989416;28;20857;-69
2023/12/14 10:23:55;;;;;;;1999.90;999.90;;;6.00;99.90;;;;;;4989370;28;20523;-70
2023/12/14 10:26:24;;;;;;;1999.90;999.90;;;5.90;99.90;;;;;;4990166;28;20415;-69
2023/12/14 10:28:51;;;;;;;1999.90;999.90;;;5.80;99.90;;;;;;4989004;28;20538;-68
2023/12/14 10:31:19;;;;;;;1999.90;999.90;;;5.80;99.90;;;;;;4989284;28;20444;-69
2023/12/14 10:33:45;;;;;;;1999.90;999.90;;;5.80;99.90;;;;;;4989884;28;20428;-69
2023/12/14 10:36:17;;;;;;;1999.90;999.90;;;5.70;99.90;;;;;;4989173;28;20424;-68
2023/12/14 10:38:44;;;;;;;1999.90;999.90;;;5.70;99.90;;;;;;4988351;28;20451;-69
2023/12/14 10:41:13;;;;;;;1999.90;999.90;;;5.70;99.90;;;;;;4989086;28;20432;-71
2023/12/14 10:43:41;;;;;;;1999.90;999.90;;;5.70;99.90;;;;;;4989551;28;20416;-70
2023/12/14 10:46:09;;;;;;;1999.90;999.90;;;5.60;99.90;;;;;;4989010;28;20986;-69
2023/12/14 10:48:41;;;;;;;1999.90;999.90;;;5.60;99.90;;;;;;4988252;28;20864;-70
2023/12/14 10:51:08;;;;;;;1999.90;999.90;;;5.70;99.90;;;;;;4988191;28;20427;-69
2023/12/14 10:53:34;;;;;;;1999.90;999.90;;;5.60;99.90;;;;;;4989193;28;20413;-68
2023/12/14 10:56:06;;;;;;;1999.90;999.90;;;5.60;99.90;;;;;;4986407;28;20436;-69
2023/12/14 10:58:55;;;;;;;1999.90;999.90;;;5.60;99.90;;;;;;4988108;28;20506;-69
2023/12/14 11:01:26;;;;;;;1999.90;999.90;;;5.60;99.90;;;;;;4989939;28;20437;-68
2023/12/14 11:03:59;;;;;;;1999.90;999.90;;;5.60;99.90;;;;;;4988699;28;20495;-68
2023/12/14 11:06:24;;;;;;;1999.90;999.90;;;5.60;99.90;;;;;;4988580;28;20405;-70
2023/12/14 11:08:54;;;;;;;1999.90;999.90;;;5.60;99.90;;;;;;4987686;28;20471;-70
2023/12/14 11:11:20;;;;;;;1999.90;999.90;;;5.70;99.90;;;;;;4989201;28;20174;-69
2023/12/14 11:13:53;;;;;;;1999.90;999.90;;;5.70;99.90;;;;;;4987979;28;20408;-69
2023/12/14 11:16:28;;;;;;;1999.90;999.90;;;5.70;99.90;;;;;;4988424;28;20492;-68
2023/12/14 11:19:22;;;;;;;1999.90;999.90;;;5.60;99.90;;;;;;4988198;28;20435;-69
2023/12/14 11:21:55;;;;;;;1999.90;999.90;;;5.60;99.90;;;;;;4989364;28;20444;-70
2023/12/14 11:24:21;;;;;;;1999.90;999.90;;;5.60;99.90;;;;;;4988300;28;20421;-69
2023/12/14 11:26:49;;;;;;;1999.90;999.90;;;5.60;99.90;;;;;;4989727;28;20931;-70
2023/12/14 11:29:15;;;;;;;1999.90;999.90;;;5.60;99.90;;;;;;4990201;28;20527;-70
2023/12/14 11:31:40;;;;;;;1999.90;999.90;;;5.70;99.90;;;;;;4989620;28;20413;-70
2023/12/14 11:34:07;;;;;;;1999.90;999.90;;;5.70;99.90;;;;;;4987090;28;20595;-70
2023/12/14 11:36:33;;;;;;;1999.90;999.90;;;5.70;99.90;;;;;;4988693;28;20190;-69
2023/12/14 11:38:58;;;;;;;1999.90;999.90;;;6.00;99.90;;;;;;4987733;28;20459;-70
2023/12/14 11:41:29;;;;;;;1999.90;999.90;;;5.70;99.90;;;;;;4988081;28;20420;-71
2023/12/14 11:43:55;;;;;;;1999.90;999.90;;;5.70;99.90;;;;;;4988607;28;20660;-70
2023/12/14 11:46:21;;;;;;;1999.90;999.90;;;5.70;99.90;;;;;;4987745;28;20491;-70
2023/12/14 11:48:51;;;;;;;1999.90;999.90;;;5.70;99.90;;;;;;4987380;28;20468;-71
2023/12/14 11:51:17;;;;;;;1999.90;999.90;;;5.80;99.90;;;;;;4988298;28;20180;-70
2023/12/14 11:53:47;;;;;;;1999.90;999.90;;;5.80;99.90;;;;;;4987470;28;21124;-71
2023/12/14 11:56:16;;;;;;;1999.90;999.90;;;5.80;99.90;;;;;;4987539;28;20456;-70
2023/12/14 11:58:43;;;;;;;1999.90;999.90;;;5.80;99.90;;;;;;4987406;28;20451;-70
2023/12/14 12:01:16;;;;;;;1999.90;999.90;;;5.90;99.90;;;;;;4988161;28;20417;-70
2023/12/14 12:03:43;;;;;;;1999.90;999.90;;;5.90;99.90;;;;;;4990191;28;20508;-70